<?xml version="1.0" encoding="UTF-8" standalone="no" ?>
<gpx xmlns="http://www.topografix.com/GPX/1/1" xmlns:xsi="http://www.w3.org/2001/XMLSchema-instance" xsi:schemaLocation="http://www.topografix.com/GPX/1/1 http://www.topografix.com/GPX/1/1/gpx.xsd" version="1.1" creator="VisuGPX - https://www.visugpx.com">
  <metadata>
    <name>Merris Morbecque</name>
    <desc><![CDATA[Merris Morbecque]]></desc>
  </metadata>
  <trk>
    <name><![CDATA[mont noir mont des cats casse]]></name>
    <trkseg>
      <trkpt lat="50.75541" lon="2.51879">
        <ele>44.7</ele>
        <time>2018-02-27T11:39:56Z</time>
      </trkpt>
      <trkpt lat="50.75541" lon="2.51879">
        <ele>44.66951751709</ele>
        <time>2018-02-27T11:39:56Z</time>
      </trkpt>
      <trkpt lat="50.75541" lon="2.5188">
        <ele>44.65495300293</ele>
        <time>2018-02-27T11:39:56Z</time>
      </trkpt>
      <trkpt lat="50.75564" lon="2.51892">
        <ele>44.671321868896</ele>
        <time>2018-02-27T11:39:56Z</time>
      </trkpt>
      <trkpt lat="50.75605" lon="2.51897">
        <ele>44.925392150879</ele>
        <time>2018-02-27T11:39:56Z</time>
      </trkpt>
      <trkpt lat="50.75638" lon="2.51898">
        <ele>45.335994720459</ele>
        <time>2018-02-27T11:40:02Z</time>
      </trkpt>
      <trkpt lat="50.75642" lon="2.51901">
        <ele>45.394248962402</ele>
        <time>2018-02-27T11:40:13Z</time>
      </trkpt>
      <trkpt lat="50.75653" lon="2.52044">
        <ele>45.190288543701</ele>
        <time>2018-02-27T11:40:22Z</time>
      </trkpt>
      <trkpt lat="50.75664" lon="2.52117">
        <ele>45</ele>
        <time>2018-02-27T11:40:22Z</time>
      </trkpt>
      <trkpt lat="50.75668" lon="2.5214">
        <ele>44.957569122314</ele>
        <time>2018-02-27T11:40:22Z</time>
      </trkpt>
      <trkpt lat="50.75671" lon="2.52183">
        <ele>44.443794250488</ele>
        <time>2018-02-27T11:40:28Z</time>
      </trkpt>
      <trkpt lat="50.75671" lon="2.52254">
        <ele>43.468265533447</ele>
        <time>2018-02-27T11:40:39Z</time>
      </trkpt>
      <trkpt lat="50.75665" lon="2.52316">
        <ele>42.201995849609</ele>
        <time>2018-02-27T11:40:48Z</time>
      </trkpt>
      <trkpt lat="50.75665" lon="2.52352">
        <ele>41.503028869629</ele>
        <time>2018-02-27T11:40:49Z</time>
      </trkpt>
      <trkpt lat="50.75665" lon="2.52352">
        <ele>41.503028869629</ele>
        <time>2018-02-27T11:41:13Z</time>
      </trkpt>
      <trkpt lat="50.75665" lon="2.52316">
        <ele>42.201995849609</ele>
        <time>2018-02-27T11:41:26Z</time>
      </trkpt>
      <trkpt lat="50.75668" lon="2.52287">
        <ele>42.880073547363</ele>
        <time>2018-02-27T11:41:30Z</time>
      </trkpt>
      <trkpt lat="50.75671" lon="2.52254">
        <ele>43.468265533447</ele>
        <time>2018-02-27T11:41:37Z</time>
      </trkpt>
      <trkpt lat="50.75671" lon="2.52183">
        <ele>44.443794250488</ele>
        <time>2018-02-27T11:41:49Z</time>
      </trkpt>
      <trkpt lat="50.75669" lon="2.5216">
        <ele>44.727405548096</ele>
        <time>2018-02-27T11:42:00Z</time>
      </trkpt>
      <trkpt lat="50.75662" lon="2.52163">
        <ele>44.73274230957</ele>
        <time>2018-02-27T11:42:06Z</time>
      </trkpt>
      <trkpt lat="50.75571" lon="2.52209">
        <ele>44.940216064453</ele>
        <time>2018-02-27T11:42:06Z</time>
      </trkpt>
      <trkpt lat="50.754" lon="2.5228">
        <ele>40.621807098389</ele>
        <time>2018-02-27T11:42:06Z</time>
      </trkpt>
      <trkpt lat="50.75364" lon="2.52294">
        <ele>39.231548309326</ele>
        <time>2018-02-27T11:42:12Z</time>
      </trkpt>
      <trkpt lat="50.75336" lon="2.52302">
        <ele>38.351993560791</ele>
        <time>2018-02-27T11:42:23Z</time>
      </trkpt>
      <trkpt lat="50.75326" lon="2.52307">
        <ele>38.279174804688</ele>
        <time>2018-02-27T11:42:32Z</time>
      </trkpt>
      <trkpt lat="50.7532" lon="2.52309">
        <ele>38.220920562744</ele>
        <time>2018-02-27T11:42:33Z</time>
      </trkpt>
      <trkpt lat="50.75314" lon="2.52315">
        <ele>38.220920562744</ele>
        <time>2018-02-27T11:42:57Z</time>
      </trkpt>
      <trkpt lat="50.75305" lon="2.5232">
        <ele>38.162666320801</ele>
        <time>2018-02-27T11:43:10Z</time>
      </trkpt>
      <trkpt lat="50.75304" lon="2.52319">
        <ele>38.133541107178</ele>
        <time>2018-02-27T11:43:14Z</time>
      </trkpt>
      <trkpt lat="50.75302" lon="2.52317">
        <ele>38.075286865234</ele>
        <time>2018-02-27T11:43:21Z</time>
      </trkpt>
      <trkpt lat="50.75301" lon="2.52316">
        <ele>38.046157836914</ele>
        <time>2018-02-27T11:43:33Z</time>
      </trkpt>
      <trkpt lat="50.75297" lon="2.52314">
        <ele>37.958778381348</ele>
        <time>2018-02-27T11:43:44Z</time>
      </trkpt>
      <trkpt lat="50.75293" lon="2.52314">
        <ele>37.900524139404</ele>
        <time>2018-02-27T11:43:50Z</time>
      </trkpt>
      <trkpt lat="50.75286" lon="2.52318">
        <ele>37.856830596924</ele>
        <time>2018-02-27T11:43:50Z</time>
      </trkpt>
      <trkpt lat="50.75282" lon="2.52327">
        <ele>37.929649353027</ele>
        <time>2018-02-27T11:43:56Z</time>
      </trkpt>
      <trkpt lat="50.7528" lon="2.52338">
        <ele>38.060722351074</ele>
        <time>2018-02-27T11:44:01Z</time>
      </trkpt>
      <trkpt lat="50.75283" lon="2.52349">
        <ele>38.16593170166</ele>
        <time>2018-02-27T11:44:07Z</time>
      </trkpt>
      <trkpt lat="50.75288" lon="2.52357">
        <ele>38.238746643066</ele>
        <time>2018-02-27T11:44:19Z</time>
      </trkpt>
      <trkpt lat="50.75285" lon="2.52552">
        <ele>38.20580291748</ele>
        <time>2018-02-27T11:44:23Z</time>
      </trkpt>
      <trkpt lat="50.75282" lon="2.52916">
        <ele>37.643783569336</ele>
        <time>2018-02-27T11:44:25Z</time>
      </trkpt>
      <trkpt lat="50.75283" lon="2.52966">
        <ele>36.915603637695</ele>
        <time>2018-02-27T11:44:51Z</time>
      </trkpt>
      <trkpt lat="50.75273" lon="2.53143">
        <ele>35.337856292725</ele>
        <time>2018-02-27T11:45:38Z</time>
      </trkpt>
      <trkpt lat="50.7527" lon="2.53359">
        <ele>32.981098175049</ele>
        <time>2018-02-27T11:45:48Z</time>
      </trkpt>
      <trkpt lat="50.75268" lon="2.53465">
        <ele>31.648391723633</ele>
        <time>2018-02-27T11:45:56Z</time>
      </trkpt>
      <trkpt lat="50.75262" lon="2.5365">
        <ele>31.860095977783</ele>
        <time>2018-02-27T11:45:59Z</time>
      </trkpt>
      <trkpt lat="50.75265" lon="2.53791">
        <ele>31.894229888916</ele>
        <time>2018-02-27T11:46:01Z</time>
      </trkpt>
      <trkpt lat="50.75266" lon="2.53829">
        <ele>31.86505317688</ele>
        <time>2018-02-27T11:46:03Z</time>
      </trkpt>
      <trkpt lat="50.75257" lon="2.53828">
        <ele>31.651523590088</ele>
        <time>2018-02-27T11:46:06Z</time>
      </trkpt>
      <trkpt lat="50.75231" lon="2.53828">
        <ele>31.031223297119</ele>
        <time>2018-02-27T11:46:06Z</time>
      </trkpt>
      <trkpt lat="50.75218" lon="2.53828">
        <ele>30.721073150635</ele>
        <time>2018-02-27T11:46:07Z</time>
      </trkpt>
      <trkpt lat="50.75155" lon="2.53863">
        <ele>29.449699401855</ele>
        <time>2018-02-27T11:46:07Z</time>
      </trkpt>
      <trkpt lat="50.75108" lon="2.5389">
        <ele>29.334037780762</ele>
        <time>2018-02-27T11:46:08Z</time>
      </trkpt>
      <trkpt lat="50.7509" lon="2.53896">
        <ele>29.223220825195</ele>
        <time>2018-02-27T11:46:09Z</time>
      </trkpt>
      <trkpt lat="50.74908" lon="2.53977">
        <ele>29.512746810913</ele>
        <time>2018-02-27T11:46:11Z</time>
      </trkpt>
      <trkpt lat="50.74909" lon="2.53986">
        <ele>29.658382415771</ele>
        <time>2018-02-27T11:46:13Z</time>
      </trkpt>
      <trkpt lat="50.74909" lon="2.53986">
        <ele>29.658382415771</ele>
        <time>2018-02-27T11:46:15Z</time>
      </trkpt>
      <trkpt lat="50.74914" lon="2.54019">
        <ele>29.79197883606</ele>
        <time>2018-02-27T11:46:17Z</time>
      </trkpt>
      <trkpt lat="50.74911" lon="2.5403">
        <ele>29.748287200928</ele>
        <time>2018-02-27T11:46:19Z</time>
      </trkpt>
      <trkpt lat="50.74906" lon="2.54038">
        <ele>29.675470352173</ele>
        <time>2018-02-27T11:46:52Z</time>
      </trkpt>
      <trkpt lat="50.74884" lon="2.54056">
        <ele>29.355072021484</ele>
        <time>2018-02-27T11:47:54Z</time>
      </trkpt>
      <trkpt lat="50.74854" lon="2.54073">
        <ele>28.85320854187</ele>
        <time>2018-02-27T11:48:02Z</time>
      </trkpt>
      <trkpt lat="50.74776" lon="2.54117">
        <ele>27.444774627686</ele>
        <time>2018-02-27T11:48:32Z</time>
      </trkpt>
      <trkpt lat="50.74683" lon="2.54164">
        <ele>24.85559463501</ele>
        <time>2018-02-27T11:49:09Z</time>
      </trkpt>
      <trkpt lat="50.74586" lon="2.54213">
        <ele>23.015132904053</ele>
        <time>2018-02-27T11:49:27Z</time>
      </trkpt>
      <trkpt lat="50.74575" lon="2.5422">
        <ele>23</ele>
        <time>2018-02-27T11:49:58Z</time>
      </trkpt>
      <trkpt lat="50.74568" lon="2.54223">
        <ele>23</ele>
        <time>2018-02-27T11:50:22Z</time>
      </trkpt>
      <trkpt lat="50.74568" lon="2.54238">
        <ele>23</ele>
        <time>2018-02-27T11:50:28Z</time>
      </trkpt>
      <trkpt lat="50.74567" lon="2.54272">
        <ele>22.950218200684</ele>
        <time>2018-02-27T11:50:30Z</time>
      </trkpt>
      <trkpt lat="50.74564" lon="2.54306">
        <ele>22.766490936279</ele>
        <time>2018-02-27T11:50:37Z</time>
      </trkpt>
      <trkpt lat="50.74556" lon="2.5434">
        <ele>22.953086853027</ele>
        <time>2018-02-27T11:50:40Z</time>
      </trkpt>
      <trkpt lat="50.74547" lon="2.54376">
        <ele>23.659275054932</ele>
        <time>2018-02-27T11:50:58Z</time>
      </trkpt>
      <trkpt lat="50.74534" lon="2.54487">
        <ele>25.318561553955</ele>
        <time>2018-02-27T11:51:11Z</time>
      </trkpt>
      <trkpt lat="50.74538" lon="2.54572">
        <ele>25.632164001465</ele>
        <time>2018-02-27T11:51:16Z</time>
      </trkpt>
      <trkpt lat="50.74534" lon="2.54655">
        <ele>25.691555023193</ele>
        <time>2018-02-27T11:52:07Z</time>
      </trkpt>
      <trkpt lat="50.74529" lon="2.54653">
        <ele>25.490852355957</ele>
        <time>2018-02-27T11:52:09Z</time>
      </trkpt>
      <trkpt lat="50.74525" lon="2.54651">
        <ele>25.332605361938</ele>
        <time>2018-02-27T11:52:09Z</time>
      </trkpt>
      <trkpt lat="50.74523" lon="2.54651">
        <ele>25.256175994873</ele>
        <time>2018-02-27T11:52:09Z</time>
      </trkpt>
      <trkpt lat="50.74527" lon="2.54614">
        <ele>25.325037002563</ele>
        <time>2018-02-27T11:52:15Z</time>
      </trkpt>
      <trkpt lat="50.74527" lon="2.54599">
        <ele>25.311765670776</ele>
        <time>2018-02-27T11:52:26Z</time>
      </trkpt>
      <trkpt lat="50.74527" lon="2.54599">
        <ele>25.311765670776</ele>
        <time>2018-02-27T11:52:35Z</time>
      </trkpt>
      <trkpt lat="50.74523" lon="2.54651">
        <ele>25.256175994873</ele>
        <time>2018-02-27T11:52:36Z</time>
      </trkpt>
      <trkpt lat="50.74527" lon="2.54652">
        <ele>25.411304473877</ele>
        <time>2018-02-27T11:53:00Z</time>
      </trkpt>
      <trkpt lat="50.74531" lon="2.54654">
        <ele>25.57124710083</ele>
        <time>2018-02-27T11:53:13Z</time>
      </trkpt>
      <trkpt lat="50.74534" lon="2.54655">
        <ele>25.691555023193</ele>
        <time>2018-02-27T11:53:17Z</time>
      </trkpt>
      <trkpt lat="50.7453" lon="2.54679">
        <ele>25.560615539551</ele>
        <time>2018-02-27T11:53:24Z</time>
      </trkpt>
      <trkpt lat="50.74518" lon="2.54749">
        <ele>24.047079086304</ele>
        <time>2018-02-27T11:53:36Z</time>
      </trkpt>
      <trkpt lat="50.74513" lon="2.54799">
        <ele>24</ele>
        <time>2018-02-27T11:53:47Z</time>
      </trkpt>
      <trkpt lat="50.74512" lon="2.54826">
        <ele>23.989200592041</ele>
        <time>2018-02-27T11:53:53Z</time>
      </trkpt>
      <trkpt lat="50.74514" lon="2.54895">
        <ele>23.972492218018</ele>
        <time>2018-02-27T11:53:53Z</time>
      </trkpt>
      <trkpt lat="50.74528" lon="2.55066">
        <ele>23.332138061523</ele>
        <time>2018-02-27T11:53:59Z</time>
      </trkpt>
      <trkpt lat="50.74532" lon="2.55081">
        <ele>23.11368560791</ele>
        <time>2018-02-27T11:54:04Z</time>
      </trkpt>
      <trkpt lat="50.74536" lon="2.55105">
        <ele>22.76416015625</ele>
        <time>2018-02-27T11:54:10Z</time>
      </trkpt>
      <trkpt lat="50.74544" lon="2.55139">
        <ele>22.268999099731</ele>
        <time>2018-02-27T11:54:22Z</time>
      </trkpt>
      <trkpt lat="50.74547" lon="2.55164">
        <ele>22</ele>
        <time>2018-02-27T11:54:26Z</time>
      </trkpt>
      <trkpt lat="50.74546" lon="2.55199">
        <ele>22</ele>
        <time>2018-02-27T11:54:28Z</time>
      </trkpt>
      <trkpt lat="50.74546" lon="2.55222">
        <ele>22</ele>
        <time>2018-02-27T11:54:54Z</time>
      </trkpt>
      <trkpt lat="50.74549" lon="2.55234">
        <ele>22.054552078247</ele>
        <time>2018-02-27T11:55:41Z</time>
      </trkpt>
      <trkpt lat="50.74563" lon="2.55319">
        <ele>22.567449569702</ele>
        <time>2018-02-27T11:55:51Z</time>
      </trkpt>
      <trkpt lat="50.74568" lon="2.55338">
        <ele>22.597581863403</ele>
        <time>2018-02-27T11:55:59Z</time>
      </trkpt>
      <trkpt lat="50.74588" lon="2.55383">
        <ele>23</ele>
        <time>2018-02-27T11:56:02Z</time>
      </trkpt>
      <trkpt lat="50.74638" lon="2.55452">
        <ele>23.065855026245</ele>
        <time>2018-02-27T11:56:04Z</time>
      </trkpt>
      <trkpt lat="50.74651" lon="2.55477">
        <ele>23.02498626709</ele>
        <time>2018-02-27T11:56:06Z</time>
      </trkpt>
      <trkpt lat="50.74655" lon="2.55495">
        <ele>23.020017623901</ele>
        <time>2018-02-27T11:56:09Z</time>
      </trkpt>
      <trkpt lat="50.74656" lon="2.55511">
        <ele>23.039722442627</ele>
        <time>2018-02-27T11:56:09Z</time>
      </trkpt>
      <trkpt lat="50.74651" lon="2.55534">
        <ele>23.038236618042</ele>
        <time>2018-02-27T11:56:10Z</time>
      </trkpt>
      <trkpt lat="50.74643" lon="2.55552">
        <ele>23.154745101929</ele>
        <time>2018-02-27T11:56:10Z</time>
      </trkpt>
      <trkpt lat="50.74627" lon="2.55581">
        <ele>23.322582244873</ele>
        <time>2018-02-27T11:56:11Z</time>
      </trkpt>
      <trkpt lat="50.746" lon="2.55617">
        <ele>23.240243911743</ele>
        <time>2018-02-27T11:56:12Z</time>
      </trkpt>
      <trkpt lat="50.74578" lon="2.55643">
        <ele>22.898624420166</ele>
        <time>2018-02-27T11:56:14Z</time>
      </trkpt>
      <trkpt lat="50.74578" lon="2.55643">
        <ele>22.898624420166</ele>
        <time>2018-02-27T11:56:16Z</time>
      </trkpt>
      <trkpt lat="50.74569" lon="2.55659">
        <ele>22.767551422119</ele>
        <time>2018-02-27T11:56:18Z</time>
      </trkpt>
      <trkpt lat="50.7456" lon="2.55684">
        <ele>22.636480331421</ele>
        <time>2018-02-27T11:56:20Z</time>
      </trkpt>
      <trkpt lat="50.74549" lon="2.5574">
        <ele>22.476280212402</ele>
        <time>2018-02-27T11:56:22Z</time>
      </trkpt>
      <trkpt lat="50.74538" lon="2.55811">
        <ele>21.798372268677</ele>
        <time>2018-02-27T11:56:55Z</time>
      </trkpt>
      <trkpt lat="50.74532" lon="2.55869">
        <ele>21.311580657959</ele>
        <time>2018-02-27T11:57:57Z</time>
      </trkpt>
      <trkpt lat="50.74529" lon="2.55925">
        <ele>21.580898284912</ele>
        <time>2018-02-27T11:58:05Z</time>
      </trkpt>
      <trkpt lat="50.74527" lon="2.55953">
        <ele>21.988805770874</ele>
        <time>2018-02-27T11:58:35Z</time>
      </trkpt>
      <trkpt lat="50.74521" lon="2.55988">
        <ele>22.294424057007</ele>
        <time>2018-02-27T11:59:12Z</time>
      </trkpt>
      <trkpt lat="50.74511" lon="2.56021">
        <ele>22.498922348022</ele>
        <time>2018-02-27T11:59:30Z</time>
      </trkpt>
      <trkpt lat="50.74493" lon="2.56069">
        <ele>22.842491149902</ele>
        <time>2018-02-27T12:00:01Z</time>
      </trkpt>
      <trkpt lat="50.74476" lon="2.56114">
        <ele>22.797555923462</ele>
        <time>2018-02-27T12:00:25Z</time>
      </trkpt>
      <trkpt lat="50.74467" lon="2.56148">
        <ele>22.869710922241</ele>
        <time>2018-02-27T12:00:31Z</time>
      </trkpt>
      <trkpt lat="50.74455" lon="2.56193">
        <ele>23.107307434082</ele>
        <time>2018-02-27T12:00:33Z</time>
      </trkpt>
      <trkpt lat="50.74446" lon="2.56212">
        <ele>22.976234436035</ele>
        <time>2018-02-27T12:00:40Z</time>
      </trkpt>
      <trkpt lat="50.74436" lon="2.56225">
        <ele>22.830598831177</ele>
        <time>2018-02-27T12:00:43Z</time>
      </trkpt>
      <trkpt lat="50.74402" lon="2.56255">
        <ele>22.335437774658</ele>
        <time>2018-02-27T12:01:01Z</time>
      </trkpt>
      <trkpt lat="50.74388" lon="2.5627">
        <ele>22.158170700073</ele>
        <time>2018-02-27T12:01:14Z</time>
      </trkpt>
      <trkpt lat="50.74332" lon="2.56359">
        <ele>21.315988540649</ele>
        <time>2018-02-27T12:01:19Z</time>
      </trkpt>
      <trkpt lat="50.74299" lon="2.56411">
        <ele>21.378337860107</ele>
        <time>2018-02-27T12:02:10Z</time>
      </trkpt>
      <trkpt lat="50.74279" lon="2.56437">
        <ele>21.801120758057</ele>
        <time>2018-02-27T12:02:12Z</time>
      </trkpt>
      <trkpt lat="50.74265" lon="2.56461">
        <ele>21.994564056396</ele>
        <time>2018-02-27T12:02:12Z</time>
      </trkpt>
      <trkpt lat="50.74227" lon="2.56542">
        <ele>22.950485229492</ele>
        <time>2018-02-27T12:02:14Z</time>
      </trkpt>
      <trkpt lat="50.74219" lon="2.56556">
        <ele>23.037866592407</ele>
        <time>2018-02-27T12:02:54Z</time>
      </trkpt>
      <trkpt lat="50.74239" lon="2.56586">
        <ele>23.766044616699</ele>
        <time>2018-02-27T12:03:09Z</time>
      </trkpt>
      <trkpt lat="50.74336" lon="2.56739">
        <ele>24.625757217407</ele>
        <time>2018-02-27T12:03:38Z</time>
      </trkpt>
      <trkpt lat="50.74403" lon="2.56842">
        <ele>23.836456298828</ele>
        <time>2018-02-27T12:03:42Z</time>
      </trkpt>
      <trkpt lat="50.74476" lon="2.56954">
        <ele>23.654554367065</ele>
        <time>2018-02-27T12:03:53Z</time>
      </trkpt>
      <trkpt lat="50.74537" lon="2.57036">
        <ele>23.698482513428</ele>
        <time>2018-02-27T12:04:37Z</time>
      </trkpt>
      <trkpt lat="50.74684" lon="2.57231">
        <ele>25</ele>
        <time>2018-02-27T12:04:55Z</time>
      </trkpt>
      <trkpt lat="50.7472" lon="2.57289">
        <ele>25.041223526001</ele>
        <time>2018-02-27T12:05:26Z</time>
      </trkpt>
      <trkpt lat="50.74731" lon="2.57312">
        <ele>25.377607345581</ele>
        <time>2018-02-27T12:05:56Z</time>
      </trkpt>
      <trkpt lat="50.7474" lon="2.57345">
        <ele>25.858203887939</ele>
        <time>2018-02-27T12:06:28Z</time>
      </trkpt>
      <trkpt lat="50.74741" lon="2.57369">
        <ele>26.056602478027</ele>
        <time>2018-02-27T12:06:43Z</time>
      </trkpt>
      <trkpt lat="50.74728" lon="2.57521">
        <ele>27.035041809082</ele>
        <time>2018-02-27T12:07:04Z</time>
      </trkpt>
      <trkpt lat="50.74722" lon="2.57578">
        <ele>26.995775222778</ele>
        <time>2018-02-27T12:07:39Z</time>
      </trkpt>
      <trkpt lat="50.74722" lon="2.57578">
        <ele>26.995775222778</ele>
        <time>2018-02-27T12:07:44Z</time>
      </trkpt>
      <trkpt lat="50.74767" lon="2.57614">
        <ele>27.145984649658</ele>
        <time>2018-02-27T12:07:48Z</time>
      </trkpt>
      <trkpt lat="50.74798" lon="2.57633">
        <ele>27.102605819702</ele>
        <time>2018-02-27T12:07:55Z</time>
      </trkpt>
      <trkpt lat="50.74846" lon="2.57658">
        <ele>27.801656723022</ele>
        <time>2018-02-27T12:07:58Z</time>
      </trkpt>
      <trkpt lat="50.74892" lon="2.57699">
        <ele>28.471580505371</ele>
        <time>2018-02-27T12:08:00Z</time>
      </trkpt>
      <trkpt lat="50.74943" lon="2.57755">
        <ele>28.785678863525</ele>
        <time>2018-02-27T12:08:02Z</time>
      </trkpt>
      <trkpt lat="50.75012" lon="2.57831">
        <ele>27.561586380005</ele>
        <time>2018-02-27T12:08:03Z</time>
      </trkpt>
      <trkpt lat="50.75029" lon="2.57851">
        <ele>27.066425323486</ele>
        <time>2018-02-27T12:08:04Z</time>
      </trkpt>
      <trkpt lat="50.75079" lon="2.57937">
        <ele>26.573379516602</ele>
        <time>2018-02-27T12:08:05Z</time>
      </trkpt>
      <trkpt lat="50.75111" lon="2.57978">
        <ele>27.687080383301</ele>
        <time>2018-02-27T12:08:08Z</time>
      </trkpt>
      <trkpt lat="50.75148" lon="2.58027">
        <ele>27.958141326904</ele>
        <time>2018-02-27T12:08:12Z</time>
      </trkpt>
      <trkpt lat="50.75164" lon="2.5806">
        <ele>28.153776168823</ele>
        <time>2018-02-27T12:08:17Z</time>
      </trkpt>
      <trkpt lat="50.75174" lon="2.5807">
        <ele>28.175672531128</ele>
        <time>2018-02-27T12:08:19Z</time>
      </trkpt>
      <trkpt lat="50.75171" lon="2.58114">
        <ele>28.495981216431</ele>
        <time>2018-02-27T12:08:38Z</time>
      </trkpt>
      <trkpt lat="50.75173" lon="2.58136">
        <ele>28.649215698242</ele>
        <time>2018-02-27T12:08:58Z</time>
      </trkpt>
      <trkpt lat="50.75161" lon="2.58148">
        <ele>28.825937271118</ele>
        <time>2018-02-27T12:09:06Z</time>
      </trkpt>
      <trkpt lat="50.75146" lon="2.5821">
        <ele>29</ele>
        <time>2018-02-27T12:09:20Z</time>
      </trkpt>
      <trkpt lat="50.7511" lon="2.58337">
        <ele>27.646434783936</ele>
        <time>2018-02-27T12:09:37Z</time>
      </trkpt>
      <trkpt lat="50.75089" lon="2.58447">
        <ele>27.938835144043</ele>
        <time>2018-02-27T12:10:16Z</time>
      </trkpt>
      <trkpt lat="50.75045" lon="2.5871">
        <ele>28</ele>
        <time>2018-02-27T12:10:36Z</time>
      </trkpt>
      <trkpt lat="50.7503" lon="2.58787">
        <ele>28.858852386475</ele>
        <time>2018-02-27T12:11:05Z</time>
      </trkpt>
      <trkpt lat="50.74989" lon="2.58997">
        <ele>29.106170654297</ele>
        <time>2018-02-27T12:11:11Z</time>
      </trkpt>
      <trkpt lat="50.74988" lon="2.59047">
        <ele>29.130317687988</ele>
        <time>2018-02-27T12:11:13Z</time>
      </trkpt>
      <trkpt lat="50.74989" lon="2.59099">
        <ele>29.518436431885</ele>
        <time>2018-02-27T12:11:18Z</time>
      </trkpt>
      <trkpt lat="50.74984" lon="2.59135">
        <ele>30.11554145813</ele>
        <time>2018-02-27T12:11:23Z</time>
      </trkpt>
      <trkpt lat="50.7495" lon="2.59286">
        <ele>31.126066207886</ele>
        <time>2018-02-27T12:11:33Z</time>
      </trkpt>
      <trkpt lat="50.74929" lon="2.59354">
        <ele>32</ele>
        <time>2018-02-27T12:11:36Z</time>
      </trkpt>
      <trkpt lat="50.749" lon="2.5948">
        <ele>31.588088989258</ele>
        <time>2018-02-27T12:11:43Z</time>
      </trkpt>
      <trkpt lat="50.74894" lon="2.59506">
        <ele>31.665498733521</ele>
        <time>2018-02-27T12:11:53Z</time>
      </trkpt>
      <trkpt lat="50.7488" lon="2.59598">
        <ele>32.198837280273</ele>
        <time>2018-02-27T12:12:01Z</time>
      </trkpt>
      <trkpt lat="50.74851" lon="2.59735">
        <ele>32.874473571777</ele>
        <time>2018-02-27T12:12:05Z</time>
      </trkpt>
      <trkpt lat="50.7483" lon="2.59804">
        <ele>33.238628387451</ele>
        <time>2018-02-27T12:12:19Z</time>
      </trkpt>
      <trkpt lat="50.74824" lon="2.59844">
        <ele>33.733787536621</ele>
        <time>2018-02-27T12:12:27Z</time>
      </trkpt>
      <trkpt lat="50.74818" lon="2.59919">
        <ele>34.738674163818</ele>
        <time>2018-02-27T12:12:31Z</time>
      </trkpt>
      <trkpt lat="50.74814" lon="2.59972">
        <ele>35.413131713867</ele>
        <time>2018-02-27T12:12:34Z</time>
      </trkpt>
      <trkpt lat="50.74795" lon="2.601">
        <ele>36.980800628662</ele>
        <time>2018-02-27T12:12:37Z</time>
      </trkpt>
      <trkpt lat="50.7476" lon="2.60307">
        <ele>37.995456695557</ele>
        <time>2018-02-27T12:12:37Z</time>
      </trkpt>
      <trkpt lat="50.7475" lon="2.60374">
        <ele>38.971214294434</ele>
        <time>2018-02-27T12:12:37Z</time>
      </trkpt>
      <trkpt lat="50.7472" lon="2.60533">
        <ele>40.253467559814</ele>
        <time>2018-02-27T12:12:43Z</time>
      </trkpt>
      <trkpt lat="50.7472" lon="2.60533">
        <ele>40.253467559814</ele>
        <time>2018-02-27T12:12:54Z</time>
      </trkpt>
      <trkpt lat="50.74699" lon="2.60614">
        <ele>41.285499572754</ele>
        <time>2018-02-27T12:13:03Z</time>
      </trkpt>
      <trkpt lat="50.74682" lon="2.60664">
        <ele>42.194644927979</ele>
        <time>2018-02-27T12:13:04Z</time>
      </trkpt>
      <trkpt lat="50.74671" lon="2.60704">
        <ele>42.777187347412</ele>
        <time>2018-02-27T12:13:28Z</time>
      </trkpt>
      <trkpt lat="50.74661" lon="2.60762">
        <ele>43.688663482666</ele>
        <time>2018-02-27T12:13:41Z</time>
      </trkpt>
      <trkpt lat="50.7464" lon="2.60926">
        <ele>47.028846740723</ele>
        <time>2018-02-27T12:13:45Z</time>
      </trkpt>
      <trkpt lat="50.74632" lon="2.60952">
        <ele>48.04434967041</ele>
        <time>2018-02-27T12:13:52Z</time>
      </trkpt>
      <trkpt lat="50.74611" lon="2.6101">
        <ele>49.757892608643</ele>
        <time>2018-02-27T12:14:04Z</time>
      </trkpt>
      <trkpt lat="50.74593" lon="2.61065">
        <ele>51.069263458252</ele>
        <time>2018-02-27T12:14:15Z</time>
      </trkpt>
      <trkpt lat="50.74574" lon="2.61138">
        <ele>53.179935455322</ele>
        <time>2018-02-27T12:14:21Z</time>
      </trkpt>
      <trkpt lat="50.74557" lon="2.61235">
        <ele>55.311080932617</ele>
        <time>2018-02-27T12:14:21Z</time>
      </trkpt>
      <trkpt lat="50.74534" lon="2.61382">
        <ele>57.909107208252</ele>
        <time>2018-02-27T12:14:27Z</time>
      </trkpt>
      <trkpt lat="50.74521" lon="2.61508">
        <ele>59.521476745605</ele>
        <time>2018-02-27T12:14:32Z</time>
      </trkpt>
      <trkpt lat="50.74516" lon="2.61576">
        <ele>60.470031738281</ele>
        <time>2018-02-27T12:14:38Z</time>
      </trkpt>
      <trkpt lat="50.74518" lon="2.61595">
        <ele>60.73462677002</ele>
        <time>2018-02-27T12:14:50Z</time>
      </trkpt>
      <trkpt lat="50.74526" lon="2.61588">
        <ele>60.55931854248</ele>
        <time>2018-02-27T12:14:54Z</time>
      </trkpt>
      <trkpt lat="50.74535" lon="2.61614">
        <ele>60.727607727051</ele>
        <time>2018-02-27T12:14:56Z</time>
      </trkpt>
      <trkpt lat="50.7456" lon="2.61698">
        <ele>60.363521575928</ele>
        <time>2018-02-27T12:15:22Z</time>
      </trkpt>
      <trkpt lat="50.74619" lon="2.61879">
        <ele>57.56005859375</ele>
        <time>2018-02-27T12:16:09Z</time>
      </trkpt>
      <trkpt lat="50.74638" lon="2.61942">
        <ele>55.613822937012</ele>
        <time>2018-02-27T12:16:19Z</time>
      </trkpt>
      <trkpt lat="50.74646" lon="2.61975">
        <ele>54.823589324951</ele>
        <time>2018-02-27T12:16:27Z</time>
      </trkpt>
      <trkpt lat="50.74655" lon="2.62033">
        <ele>53.827812194824</ele>
        <time>2018-02-27T12:16:30Z</time>
      </trkpt>
      <trkpt lat="50.74679" lon="2.62184">
        <ele>50.299205780029</ele>
        <time>2018-02-27T12:16:32Z</time>
      </trkpt>
      <trkpt lat="50.74684" lon="2.62226">
        <ele>49.614719390869</ele>
        <time>2018-02-27T12:16:34Z</time>
      </trkpt>
      <trkpt lat="50.74684" lon="2.62226">
        <ele>49.614719390869</ele>
        <time>2018-02-27T12:16:37Z</time>
      </trkpt>
      <trkpt lat="50.74709" lon="2.62431">
        <ele>46.071552276611</ele>
        <time>2018-02-27T12:16:37Z</time>
      </trkpt>
      <trkpt lat="50.74715" lon="2.62466">
        <ele>45.123653411865</ele>
        <time>2018-02-27T12:16:38Z</time>
      </trkpt>
      <trkpt lat="50.74749" lon="2.6268">
        <ele>41.445224761963</ele>
        <time>2018-02-27T12:16:38Z</time>
      </trkpt>
      <trkpt lat="50.7476" lon="2.62738">
        <ele>40.780620574951</ele>
        <time>2018-02-27T12:16:39Z</time>
      </trkpt>
      <trkpt lat="50.74766" lon="2.62759">
        <ele>40.551029205322</ele>
        <time>2018-02-27T12:16:40Z</time>
      </trkpt>
      <trkpt lat="50.74787" lon="2.6281">
        <ele>39.609558105469</ele>
        <time>2018-02-27T12:16:42Z</time>
      </trkpt>
      <trkpt lat="50.74809" lon="2.62879">
        <ele>39.333889007568</ele>
        <time>2018-02-27T12:16:44Z</time>
      </trkpt>
      <trkpt lat="50.74809" lon="2.62879">
        <ele>39.333889007568</ele>
        <time>2018-02-27T12:16:46Z</time>
      </trkpt>
      <trkpt lat="50.74811" lon="2.62889">
        <ele>39.423816680908</ele>
        <time>2018-02-27T12:16:48Z</time>
      </trkpt>
      <trkpt lat="50.74814" lon="2.62921">
        <ele>39.686054229736</ele>
        <time>2018-02-27T12:16:50Z</time>
      </trkpt>
      <trkpt lat="50.74814" lon="2.6301">
        <ele>39.878925323486</ele>
        <time>2018-02-27T12:17:23Z</time>
      </trkpt>
      <trkpt lat="50.74815" lon="2.63104">
        <ele>39.175632476807</ele>
        <time>2018-02-27T12:18:25Z</time>
      </trkpt>
      <trkpt lat="50.74816" lon="2.63143">
        <ele>38.702301025391</ele>
        <time>2018-02-27T12:18:33Z</time>
      </trkpt>
      <trkpt lat="50.74818" lon="2.63173">
        <ele>38.265392303467</ele>
        <time>2018-02-27T12:19:03Z</time>
      </trkpt>
      <trkpt lat="50.74826" lon="2.63255">
        <ele>37.071182250977</ele>
        <time>2018-02-27T12:19:40Z</time>
      </trkpt>
      <trkpt lat="50.74832" lon="2.63378">
        <ele>35.402233123779</ele>
        <time>2018-02-27T12:19:58Z</time>
      </trkpt>
      <trkpt lat="50.74833" lon="2.63444">
        <ele>35.123538970947</ele>
        <time>2018-02-27T12:20:29Z</time>
      </trkpt>
      <trkpt lat="50.74828" lon="2.63501">
        <ele>35</ele>
        <time>2018-02-27T12:20:53Z</time>
      </trkpt>
      <trkpt lat="50.74809" lon="2.63589">
        <ele>35</ele>
        <time>2018-02-27T12:20:59Z</time>
      </trkpt>
      <trkpt lat="50.74786" lon="2.63693">
        <ele>34.927845001221</ele>
        <time>2018-02-27T12:21:01Z</time>
      </trkpt>
      <trkpt lat="50.74771" lon="2.63746">
        <ele>34.70938873291</ele>
        <time>2018-02-27T12:21:08Z</time>
      </trkpt>
      <trkpt lat="50.74753" lon="2.63836">
        <ele>34.05700302124</ele>
        <time>2018-02-27T12:21:11Z</time>
      </trkpt>
      <trkpt lat="50.7474" lon="2.63887">
        <ele>33.124935150146</ele>
        <time>2018-02-27T12:21:29Z</time>
      </trkpt>
      <trkpt lat="50.74731" lon="2.63925">
        <ele>32.440448760986</ele>
        <time>2018-02-27T12:21:42Z</time>
      </trkpt>
      <trkpt lat="50.74703" lon="2.63899">
        <ele>32.411319732666</ele>
        <time>2018-02-27T12:21:47Z</time>
      </trkpt>
      <trkpt lat="50.74668" lon="2.63875">
        <ele>32.251121520996</ele>
        <time>2018-02-27T12:22:38Z</time>
      </trkpt>
      <trkpt lat="50.74608" lon="2.63838">
        <ele>31.916160583496</ele>
        <time>2018-02-27T12:22:40Z</time>
      </trkpt>
      <trkpt lat="50.74505" lon="2.63778">
        <ele>31.620319366455</ele>
        <time>2018-02-27T12:22:40Z</time>
      </trkpt>
      <trkpt lat="50.74485" lon="2.63764">
        <ele>31.64172744751</ele>
        <time>2018-02-27T12:22:40Z</time>
      </trkpt>
      <trkpt lat="50.74456" lon="2.63749">
        <ele>31.893146514893</ele>
        <time>2018-02-27T12:22:46Z</time>
      </trkpt>
      <trkpt lat="50.7441" lon="2.63733">
        <ele>32.60823059082</ele>
        <time>2018-02-27T12:22:57Z</time>
      </trkpt>
      <trkpt lat="50.74366" lon="2.63725">
        <ele>33.604011535645</ele>
        <time>2018-02-27T12:23:06Z</time>
      </trkpt>
      <trkpt lat="50.74356" lon="2.63725">
        <ele>33.895282745361</ele>
        <time>2018-02-27T12:23:07Z</time>
      </trkpt>
      <trkpt lat="50.74357" lon="2.63728">
        <ele>33.822463989258</ele>
        <time>2018-02-27T12:23:31Z</time>
      </trkpt>
      <trkpt lat="50.74357" lon="2.63728">
        <ele>33.822463989258</ele>
        <time>2018-02-27T12:23:44Z</time>
      </trkpt>
      <trkpt lat="50.74359" lon="2.63741">
        <ele>33.581588745117</ele>
        <time>2018-02-27T12:23:48Z</time>
      </trkpt>
      <trkpt lat="50.74355" lon="2.63872">
        <ele>33.698097229004</ele>
        <time>2018-02-27T12:23:55Z</time>
      </trkpt>
      <trkpt lat="50.74341" lon="2.63992">
        <ele>33.552940368652</ele>
        <time>2018-02-27T12:24:07Z</time>
      </trkpt>
      <trkpt lat="50.74332" lon="2.64084">
        <ele>33.684749603271</ele>
        <time>2018-02-27T12:24:18Z</time>
      </trkpt>
      <trkpt lat="50.74323" lon="2.64198">
        <ele>34.445247650146</ele>
        <time>2018-02-27T12:24:24Z</time>
      </trkpt>
      <trkpt lat="50.74311" lon="2.64438">
        <ele>34.137195587158</ele>
        <time>2018-02-27T12:24:24Z</time>
      </trkpt>
      <trkpt lat="50.74298" lon="2.64627">
        <ele>33.089984893799</ele>
        <time>2018-02-27T12:24:30Z</time>
      </trkpt>
      <trkpt lat="50.74283" lon="2.64785">
        <ele>32.235824584961</ele>
        <time>2018-02-27T12:24:35Z</time>
      </trkpt>
      <trkpt lat="50.74279" lon="2.64842">
        <ele>32.414756774902</ele>
        <time>2018-02-27T12:24:41Z</time>
      </trkpt>
      <trkpt lat="50.74277" lon="2.64871">
        <ele>32.272533416748</ele>
        <time>2018-02-27T12:24:53Z</time>
      </trkpt>
      <trkpt lat="50.74255" lon="2.64859">
        <ele>33.029880523682</ele>
        <time>2018-02-27T12:24:57Z</time>
      </trkpt>
      <trkpt lat="50.74169" lon="2.64811">
        <ele>33.922298431396</ele>
        <time>2018-02-27T12:24:59Z</time>
      </trkpt>
      <trkpt lat="50.74141" lon="2.64801">
        <ele>34.408458709717</ele>
        <time>2018-02-27T12:25:25Z</time>
      </trkpt>
      <trkpt lat="50.74114" lon="2.64798">
        <ele>34.523609161377</ele>
        <time>2018-02-27T12:26:12Z</time>
      </trkpt>
      <trkpt lat="50.74065" lon="2.64797">
        <ele>35.27388381958</ele>
        <time>2018-02-27T12:26:22Z</time>
      </trkpt>
      <trkpt lat="50.73989" lon="2.64797">
        <ele>34.747108459473</ele>
        <time>2018-02-27T12:26:30Z</time>
      </trkpt>
      <trkpt lat="50.73892" lon="2.64797">
        <ele>34.59937286377</ele>
        <time>2018-02-27T12:26:33Z</time>
      </trkpt>
      <trkpt lat="50.73775" lon="2.64793">
        <ele>33.804389953613</ele>
        <time>2018-02-27T12:26:35Z</time>
      </trkpt>
      <trkpt lat="50.73714" lon="2.64789">
        <ele>33.029037475586</ele>
        <time>2018-02-27T12:26:37Z</time>
      </trkpt>
      <trkpt lat="50.73708" lon="2.64787">
        <ele>33.047355651855</ele>
        <time>2018-02-27T12:26:40Z</time>
      </trkpt>
      <trkpt lat="50.73706" lon="2.64792">
        <ele>32.915187835693</ele>
        <time>2018-02-27T12:26:40Z</time>
      </trkpt>
      <trkpt lat="50.73674" lon="2.64847">
        <ele>32.077690124512</ele>
        <time>2018-02-27T12:26:41Z</time>
      </trkpt>
      <trkpt lat="50.73655" lon="2.64881">
        <ele>31.409273147583</ele>
        <time>2018-02-27T12:26:41Z</time>
      </trkpt>
      <trkpt lat="50.73625" lon="2.64918">
        <ele>30.733499526978</ele>
        <time>2018-02-27T12:26:42Z</time>
      </trkpt>
      <trkpt lat="50.73621" lon="2.6493">
        <ele>30.593145370483</ele>
        <time>2018-02-27T12:26:43Z</time>
      </trkpt>
      <trkpt lat="50.7362" lon="2.64946">
        <ele>30.492851257324</ele>
        <time>2018-02-27T12:26:45Z</time>
      </trkpt>
      <trkpt lat="50.73627" lon="2.6498">
        <ele>30.475919723511</ele>
        <time>2018-02-27T12:26:47Z</time>
      </trkpt>
      <trkpt lat="50.73625" lon="2.65">
        <ele>30.139320373535</ele>
        <time>2018-02-27T12:26:49Z</time>
      </trkpt>
      <trkpt lat="50.73618" lon="2.65026">
        <ele>30.340278625488</ele>
        <time>2018-02-27T12:26:51Z</time>
      </trkpt>
      <trkpt lat="50.73616" lon="2.65047">
        <ele>30.694337844849</ele>
        <time>2018-02-27T12:26:53Z</time>
      </trkpt>
      <trkpt lat="50.73617" lon="2.65056">
        <ele>30.946500778198</ele>
        <time>2018-02-27T12:27:26Z</time>
      </trkpt>
      <trkpt lat="50.73624" lon="2.651">
        <ele>30.846996307373</ele>
        <time>2018-02-27T12:28:28Z</time>
      </trkpt>
      <trkpt lat="50.7363" lon="2.65144">
        <ele>30.411575317383</ele>
        <time>2018-02-27T12:28:36Z</time>
      </trkpt>
      <trkpt lat="50.73627" lon="2.65175">
        <ele>30.667285919189</ele>
        <time>2018-02-27T12:29:06Z</time>
      </trkpt>
      <trkpt lat="50.73619" lon="2.65192">
        <ele>31.458326339722</ele>
        <time>2018-02-27T12:29:43Z</time>
      </trkpt>
      <trkpt lat="50.73471" lon="2.65363">
        <ele>34.70983505249</ele>
        <time>2018-02-27T12:30:01Z</time>
      </trkpt>
      <trkpt lat="50.73447" lon="2.65386">
        <ele>35.272701263428</ele>
        <time>2018-02-27T12:30:32Z</time>
      </trkpt>
      <trkpt lat="50.73416" lon="2.6541">
        <ele>35.496658325195</ele>
        <time>2018-02-27T12:30:56Z</time>
      </trkpt>
      <trkpt lat="50.73304" lon="2.65492">
        <ele>36.308223724365</ele>
        <time>2018-02-27T12:31:02Z</time>
      </trkpt>
      <trkpt lat="50.73315" lon="2.65566">
        <ele>36.015293121338</ele>
        <time>2018-02-27T12:31:04Z</time>
      </trkpt>
      <trkpt lat="50.73302" lon="2.65574">
        <ele>35.556060791016</ele>
        <time>2018-02-27T12:31:11Z</time>
      </trkpt>
      <trkpt lat="50.73278" lon="2.65587">
        <ele>36.091068267822</ele>
        <time>2018-02-27T12:31:14Z</time>
      </trkpt>
      <trkpt lat="50.73245" lon="2.65597">
        <ele>35.864551544189</ele>
        <time>2018-02-27T12:31:32Z</time>
      </trkpt>
      <trkpt lat="50.73245" lon="2.65597">
        <ele>35.864551544189</ele>
        <time>2018-02-27T12:31:45Z</time>
      </trkpt>
      <trkpt lat="50.7315" lon="2.65619">
        <ele>35.655311584473</ele>
        <time>2018-02-27T12:31:50Z</time>
      </trkpt>
      <trkpt lat="50.73097" lon="2.6563">
        <ele>32.871189117432</ele>
        <time>2018-02-27T12:32:41Z</time>
      </trkpt>
      <trkpt lat="50.73071" lon="2.65638">
        <ele>32.335529327393</ele>
        <time>2018-02-27T12:32:43Z</time>
      </trkpt>
      <trkpt lat="50.73051" lon="2.6565">
        <ele>32.223125457764</ele>
        <time>2018-02-27T12:32:43Z</time>
      </trkpt>
      <trkpt lat="50.73038" lon="2.65667">
        <ele>32.919059753418</ele>
        <time>2018-02-27T12:32:49Z</time>
      </trkpt>
      <trkpt lat="50.73022" lon="2.65699">
        <ele>32.921642303467</ele>
        <time>2018-02-27T12:32:51Z</time>
      </trkpt>
      <trkpt lat="50.73004" lon="2.65723">
        <ele>33.752513885498</ele>
        <time>2018-02-27T12:32:53Z</time>
      </trkpt>
      <trkpt lat="50.72973" lon="2.65748">
        <ele>34.805263519287</ele>
        <time>2018-02-27T12:33:00Z</time>
      </trkpt>
      <trkpt lat="50.72926" lon="2.6578">
        <ele>35.109260559082</ele>
        <time>2018-02-27T12:33:09Z</time>
      </trkpt>
      <trkpt lat="50.72897" lon="2.65802">
        <ele>35.657321929932</ele>
        <time>2018-02-27T12:33:31Z</time>
      </trkpt>
      <trkpt lat="50.72869" lon="2.65816">
        <ele>37.088882446289</ele>
        <time>2018-02-27T12:33:57Z</time>
      </trkpt>
      <trkpt lat="50.72797" lon="2.65846">
        <ele>37.709648132324</ele>
        <time>2018-02-27T12:34:24Z</time>
      </trkpt>
      <trkpt lat="50.72693" lon="2.65879">
        <ele>37.391147613525</ele>
        <time>2018-02-27T12:34:27Z</time>
      </trkpt>
      <trkpt lat="50.72682" lon="2.65886">
        <ele>37.369937896729</ele>
        <time>2018-02-27T12:34:29Z</time>
      </trkpt>
      <trkpt lat="50.7267" lon="2.65897">
        <ele>37.48864364624</ele>
        <time>2018-02-27T12:34:32Z</time>
      </trkpt>
      <trkpt lat="50.72652" lon="2.65923">
        <ele>37.338626861572</ele>
        <time>2018-02-27T12:34:38Z</time>
      </trkpt>
      <trkpt lat="50.72612" lon="2.6601">
        <ele>36.86194229126</ele>
        <time>2018-02-27T12:34:44Z</time>
      </trkpt>
      <trkpt lat="50.72599" lon="2.66032">
        <ele>36.569965362549</ele>
        <time>2018-02-27T12:34:50Z</time>
      </trkpt>
      <trkpt lat="50.72584" lon="2.66048">
        <ele>35.773017883301</ele>
        <time>2018-02-27T12:34:57Z</time>
      </trkpt>
      <trkpt lat="50.72573" lon="2.66057">
        <ele>35.333805084229</ele>
        <time>2018-02-27T12:35:16Z</time>
      </trkpt>
      <trkpt lat="50.72558" lon="2.66063">
        <ele>34.779190063477</ele>
        <time>2018-02-27T12:35:30Z</time>
      </trkpt>
      <trkpt lat="50.7255" lon="2.66064">
        <ele>34.53929901123</ele>
        <time>2018-02-27T12:35:44Z</time>
      </trkpt>
      <trkpt lat="50.72532" lon="2.66061">
        <ele>34.294048309326</ele>
        <time>2018-02-27T12:35:45Z</time>
      </trkpt>
      <trkpt lat="50.7252" lon="2.66057">
        <ele>34.177494049072</ele>
        <time>2018-02-27T12:35:46Z</time>
      </trkpt>
      <trkpt lat="50.72511" lon="2.66051">
        <ele>34.129661560059</ele>
        <time>2018-02-27T12:35:47Z</time>
      </trkpt>
      <trkpt lat="50.72491" lon="2.66031">
        <ele>33.952346801758</ele>
        <time>2018-02-27T12:35:53Z</time>
      </trkpt>
      <trkpt lat="50.72475" lon="2.66016">
        <ele>34.063835144043</ele>
        <time>2018-02-27T12:35:56Z</time>
      </trkpt>
      <trkpt lat="50.72446" lon="2.65985">
        <ele>34.725578308105</ele>
        <time>2018-02-27T12:35:56Z</time>
      </trkpt>
      <trkpt lat="50.72423" lon="2.65967">
        <ele>36.240936279297</ele>
        <time>2018-02-27T12:35:56Z</time>
      </trkpt>
      <trkpt lat="50.72412" lon="2.6596">
        <ele>36.019748687744</ele>
        <time>2018-02-27T12:36:02Z</time>
      </trkpt>
      <trkpt lat="50.72396" lon="2.65956">
        <ele>34.961879730225</ele>
        <time>2018-02-27T12:36:13Z</time>
      </trkpt>
      <trkpt lat="50.72381" lon="2.65955">
        <ele>33.837852478027</ele>
        <time>2018-02-27T12:36:22Z</time>
      </trkpt>
      <trkpt lat="50.72362" lon="2.65959">
        <ele>32.781360626221</ele>
        <time>2018-02-27T12:36:23Z</time>
      </trkpt>
      <trkpt lat="50.72331" lon="2.65973">
        <ele>32.608711242676</ele>
        <time>2018-02-27T12:36:47Z</time>
      </trkpt>
      <trkpt lat="50.72291" lon="2.65993">
        <ele>33.272632598877</ele>
        <time>2018-02-27T12:37:00Z</time>
      </trkpt>
      <trkpt lat="50.72266" lon="2.66001">
        <ele>33.040504455566</ele>
        <time>2018-02-27T12:37:04Z</time>
      </trkpt>
      <trkpt lat="50.72242" lon="2.66008">
        <ele>32.961151123047</ele>
        <time>2018-02-27T12:37:11Z</time>
      </trkpt>
      <trkpt lat="50.7222" lon="2.66018">
        <ele>33.379135131836</ele>
        <time>2018-02-27T12:37:23Z</time>
      </trkpt>
      <trkpt lat="50.72148" lon="2.66066">
        <ele>34.014938354492</ele>
        <time>2018-02-27T12:37:34Z</time>
      </trkpt>
      <trkpt lat="50.72114" lon="2.66083">
        <ele>33.791122436523</ele>
        <time>2018-02-27T12:37:40Z</time>
      </trkpt>
      <trkpt lat="50.72103" lon="2.66087">
        <ele>34.295566558838</ele>
        <time>2018-02-27T12:37:40Z</time>
      </trkpt>
      <trkpt lat="50.72085" lon="2.66088">
        <ele>34.920917510986</ele>
        <time>2018-02-27T12:37:46Z</time>
      </trkpt>
      <trkpt lat="50.7205" lon="2.66087">
        <ele>34.984130859375</ele>
        <time>2018-02-27T12:37:51Z</time>
      </trkpt>
      <trkpt lat="50.7205" lon="2.66087">
        <ele>34.984130859375</ele>
        <time>2018-02-27T12:37:57Z</time>
      </trkpt>
      <trkpt lat="50.71999" lon="2.66081">
        <ele>35.074069976807</ele>
        <time>2018-02-27T12:38:09Z</time>
      </trkpt>
      <trkpt lat="50.71956" lon="2.66072">
        <ele>35.04887008667</ele>
        <time>2018-02-27T12:38:13Z</time>
      </trkpt>
      <trkpt lat="50.71923" lon="2.66061">
        <ele>33.942764282227</ele>
        <time>2018-02-27T12:38:15Z</time>
      </trkpt>
      <trkpt lat="50.71914" lon="2.6605">
        <ele>33.924438476562</ele>
        <time>2018-02-27T12:38:41Z</time>
      </trkpt>
      <trkpt lat="50.71912" lon="2.66054">
        <ele>33.805130004883</ele>
        <time>2018-02-27T12:39:28Z</time>
      </trkpt>
      <trkpt lat="50.71906" lon="2.66056">
        <ele>33.731998443604</ele>
        <time>2018-02-27T12:39:38Z</time>
      </trkpt>
      <trkpt lat="50.71781" lon="2.66024">
        <ele>33.082092285156</ele>
        <time>2018-02-27T12:39:46Z</time>
      </trkpt>
      <trkpt lat="50.71679" lon="2.66003">
        <ele>31.195322036743</ele>
        <time>2018-02-27T12:39:49Z</time>
      </trkpt>
      <trkpt lat="50.71659" lon="2.65999">
        <ele>30.941377639771</ele>
        <time>2018-02-27T12:39:51Z</time>
      </trkpt>
      <trkpt lat="50.71653" lon="2.66002">
        <ele>31.055618286133</ele>
        <time>2018-02-27T12:39:53Z</time>
      </trkpt>
      <trkpt lat="50.71616" lon="2.66073">
        <ele>30.621793746948</ele>
        <time>2018-02-27T12:39:56Z</time>
      </trkpt>
      <trkpt lat="50.71571" lon="2.66138">
        <ele>29.503988265991</ele>
        <time>2018-02-27T12:39:56Z</time>
      </trkpt>
      <trkpt lat="50.71551" lon="2.66172">
        <ele>29.359624862671</ele>
        <time>2018-02-27T12:39:57Z</time>
      </trkpt>
      <trkpt lat="50.7155" lon="2.66194">
        <ele>29.187398910522</ele>
        <time>2018-02-27T12:39:57Z</time>
      </trkpt>
      <trkpt lat="50.71547" lon="2.66234">
        <ele>28.891620635986</ele>
        <time>2018-02-27T12:39:58Z</time>
      </trkpt>
      <trkpt lat="50.71533" lon="2.66329">
        <ele>28.193531036377</ele>
        <time>2018-02-27T12:39:59Z</time>
      </trkpt>
      <trkpt lat="50.71517" lon="2.66393">
        <ele>27.624134063721</ele>
        <time>2018-02-27T12:40:01Z</time>
      </trkpt>
      <trkpt lat="50.71498" lon="2.66446">
        <ele>26.482181549072</ele>
        <time>2018-02-27T12:40:03Z</time>
      </trkpt>
      <trkpt lat="50.71482" lon="2.66497">
        <ele>25.733587265015</ele>
        <time>2018-02-27T12:40:05Z</time>
      </trkpt>
      <trkpt lat="50.71453" lon="2.6663">
        <ele>24.43874168396</ele>
        <time>2018-02-27T12:40:07Z</time>
      </trkpt>
      <trkpt lat="50.71443" lon="2.66678">
        <ele>24.166437149048</ele>
        <time>2018-02-27T12:40:09Z</time>
      </trkpt>
      <trkpt lat="50.7142" lon="2.66774">
        <ele>24.127012252808</ele>
        <time>2018-02-27T12:40:42Z</time>
      </trkpt>
      <trkpt lat="50.71405" lon="2.66826">
        <ele>23.755018234253</ele>
        <time>2018-02-27T12:41:44Z</time>
      </trkpt>
      <trkpt lat="50.71393" lon="2.66868">
        <ele>23.835762023926</ele>
        <time>2018-02-27T12:41:52Z</time>
      </trkpt>
      <trkpt lat="50.71382" lon="2.66902">
        <ele>23.434463500977</ele>
        <time>2018-02-27T12:42:22Z</time>
      </trkpt>
      <trkpt lat="50.71348" lon="2.66991">
        <ele>22.534973144531</ele>
        <time>2018-02-27T12:42:59Z</time>
      </trkpt>
      <trkpt lat="50.71293" lon="2.67118">
        <ele>21.515907287598</ele>
        <time>2018-02-27T12:43:17Z</time>
      </trkpt>
      <trkpt lat="50.71293" lon="2.67118">
        <ele>21.515907287598</ele>
        <time>2018-02-27T12:43:48Z</time>
      </trkpt>
      <trkpt lat="50.71272" lon="2.67168">
        <ele>21.261028289795</ele>
        <time>2018-02-27T12:44:12Z</time>
      </trkpt>
      <trkpt lat="50.71237" lon="2.67241">
        <ele>21.71314239502</ele>
        <time>2018-02-27T12:44:18Z</time>
      </trkpt>
      <trkpt lat="50.7119" lon="2.67334">
        <ele>21.231788635254</ele>
        <time>2018-02-27T12:44:20Z</time>
      </trkpt>
      <trkpt lat="50.71127" lon="2.67453">
        <ele>21.02984046936</ele>
        <time>2018-02-27T12:44:27Z</time>
      </trkpt>
      <trkpt lat="50.71057" lon="2.67591">
        <ele>24.111522674561</ele>
        <time>2018-02-27T12:44:30Z</time>
      </trkpt>
      <trkpt lat="50.71039" lon="2.67627">
        <ele>23.968910217285</ele>
        <time>2018-02-27T12:44:48Z</time>
      </trkpt>
      <trkpt lat="50.71041" lon="2.67637">
        <ele>24.062168121338</ele>
        <time>2018-02-27T12:45:01Z</time>
      </trkpt>
      <trkpt lat="50.71049" lon="2.67684">
        <ele>24.561817169189</ele>
        <time>2018-02-27T12:45:06Z</time>
      </trkpt>
      <trkpt lat="50.71056" lon="2.67717">
        <ele>25.231374740601</ele>
        <time>2018-02-27T12:45:57Z</time>
      </trkpt>
      <trkpt lat="50.71065" lon="2.67741">
        <ele>25.50391960144</ele>
        <time>2018-02-27T12:45:59Z</time>
      </trkpt>
      <trkpt lat="50.71084" lon="2.67797">
        <ele>26.865989685059</ele>
        <time>2018-02-27T12:45:59Z</time>
      </trkpt>
      <trkpt lat="50.71101" lon="2.67844">
        <ele>28.810409545898</ele>
        <time>2018-02-27T12:46:05Z</time>
      </trkpt>
      <trkpt lat="50.71109" lon="2.67877">
        <ele>29.364990234375</ele>
        <time>2018-02-27T12:46:07Z</time>
      </trkpt>
      <trkpt lat="50.71122" lon="2.67955">
        <ele>29.945636749268</ele>
        <time>2018-02-27T12:46:09Z</time>
      </trkpt>
      <trkpt lat="50.71132" lon="2.67992">
        <ele>30.107791900635</ele>
        <time>2018-02-27T12:46:16Z</time>
      </trkpt>
      <trkpt lat="50.71157" lon="2.68059">
        <ele>31.210012435913</ele>
        <time>2018-02-27T12:46:25Z</time>
      </trkpt>
      <trkpt lat="50.712" lon="2.68181">
        <ele>31.455963134766</ele>
        <time>2018-02-27T12:46:47Z</time>
      </trkpt>
      <trkpt lat="50.71204" lon="2.68197">
        <ele>31.328990936279</ele>
        <time>2018-02-27T12:47:13Z</time>
      </trkpt>
      <trkpt lat="50.71196" lon="2.68197">
        <ele>31.208665847778</ele>
        <time>2018-02-27T12:47:40Z</time>
      </trkpt>
      <trkpt lat="50.71181" lon="2.68193">
        <ele>31.504709243774</ele>
        <time>2018-02-27T12:47:43Z</time>
      </trkpt>
      <trkpt lat="50.7116" lon="2.68188">
        <ele>30.377643585205</ele>
        <time>2018-02-27T12:47:45Z</time>
      </trkpt>
      <trkpt lat="50.71145" lon="2.6819">
        <ele>30.536954879761</ele>
        <time>2018-02-27T12:47:48Z</time>
      </trkpt>
      <trkpt lat="50.711" lon="2.68199">
        <ele>25.963808059692</ele>
        <time>2018-02-27T12:47:54Z</time>
      </trkpt>
      <trkpt lat="50.711" lon="2.68199">
        <ele>25.963808059692</ele>
        <time>2018-02-27T12:48:00Z</time>
      </trkpt>
      <trkpt lat="50.71065" lon="2.68213">
        <ele>23.642276763916</ele>
        <time>2018-02-27T12:48:06Z</time>
      </trkpt>
      <trkpt lat="50.71014" lon="2.68238">
        <ele>21.793706893921</ele>
        <time>2018-02-27T12:48:13Z</time>
      </trkpt>
      <trkpt lat="50.70933" lon="2.68285">
        <ele>19.885263442993</ele>
        <time>2018-02-27T12:48:32Z</time>
      </trkpt>
      <trkpt lat="50.70886" lon="2.68314">
        <ele>20.410404205322</ele>
        <time>2018-02-27T12:48:46Z</time>
      </trkpt>
      <trkpt lat="50.7087" lon="2.68324">
        <ele>20.582490921021</ele>
        <time>2018-02-27T12:49:00Z</time>
      </trkpt>
      <trkpt lat="50.70855" lon="2.68332">
        <ele>20.265335083008</ele>
        <time>2018-02-27T12:49:01Z</time>
      </trkpt>
      <trkpt lat="50.70844" lon="2.68341">
        <ele>19.980033874512</ele>
        <time>2018-02-27T12:49:02Z</time>
      </trkpt>
      <trkpt lat="50.70815" lon="2.6836">
        <ele>18.64380645752</ele>
        <time>2018-02-27T12:49:03Z</time>
      </trkpt>
      <trkpt lat="50.70778" lon="2.68376">
        <ele>18.682765960693</ele>
        <time>2018-02-27T12:49:09Z</time>
      </trkpt>
      <trkpt lat="50.70729" lon="2.68395">
        <ele>18.006841659546</ele>
        <time>2018-02-27T12:49:12Z</time>
      </trkpt>
      <trkpt lat="50.70666" lon="2.68432">
        <ele>17.840301513672</ele>
        <time>2018-02-27T12:49:12Z</time>
      </trkpt>
      <trkpt lat="50.70711" lon="2.68582">
        <ele>18.539926528931</ele>
        <time>2018-02-27T12:49:21Z</time>
      </trkpt>
      <trkpt lat="50.7073" lon="2.68649">
        <ele>17.963428497314</ele>
        <time>2018-02-27T12:49:22Z</time>
      </trkpt>
      <trkpt lat="50.70745" lon="2.68699">
        <ele>18.048839569092</ele>
        <time>2018-02-27T12:49:23Z</time>
      </trkpt>
      <trkpt lat="50.70783" lon="2.68787">
        <ele>19.112325668335</ele>
        <time>2018-02-27T12:49:24Z</time>
      </trkpt>
      <trkpt lat="50.70873" lon="2.69034">
        <ele>18.292812347412</ele>
        <time>2018-02-27T12:49:28Z</time>
      </trkpt>
      <trkpt lat="50.70892" lon="2.69085">
        <ele>18.410972595215</ele>
        <time>2018-02-27T12:49:40Z</time>
      </trkpt>
      <trkpt lat="50.70915" lon="2.69135">
        <ele>18.424671173096</ele>
        <time>2018-02-27T12:49:49Z</time>
      </trkpt>
      <trkpt lat="50.70924" lon="2.69155">
        <ele>18.184772491455</ele>
        <time>2018-02-27T12:49:54Z</time>
      </trkpt>
      <trkpt lat="50.70928" lon="2.69172">
        <ele>17.358400344849</ele>
        <time>2018-02-27T12:50:06Z</time>
      </trkpt>
      <trkpt lat="50.70904" lon="2.69191">
        <ele>17.039964675903</ele>
        <time>2018-02-27T12:50:35Z</time>
      </trkpt>
      <trkpt lat="50.70834" lon="2.69244">
        <ele>17.35973739624</ele>
        <time>2018-02-27T12:50:38Z</time>
      </trkpt>
      <trkpt lat="50.70831" lon="2.69247">
        <ele>17.249202728271</ele>
        <time>2018-02-27T12:50:42Z</time>
      </trkpt>
      <trkpt lat="50.70831" lon="2.69247">
        <ele>17.249202728271</ele>
        <time>2018-02-27T12:50:48Z</time>
      </trkpt>
      <trkpt lat="50.70772" lon="2.69296">
        <ele>16.236103057861</ele>
        <time>2018-02-27T12:50:52Z</time>
      </trkpt>
      <trkpt lat="50.7074" lon="2.69318">
        <ele>15.617053985596</ele>
        <time>2018-02-27T12:50:58Z</time>
      </trkpt>
      <trkpt lat="50.70712" lon="2.69336">
        <ele>16.03013420105</ele>
        <time>2018-02-27T12:51:02Z</time>
      </trkpt>
      <trkpt lat="50.70652" lon="2.69381">
        <ele>17.283773422241</ele>
        <time>2018-02-27T12:51:04Z</time>
      </trkpt>
      <trkpt lat="50.70583" lon="2.69436">
        <ele>16.85980796814</ele>
        <time>2018-02-27T12:51:19Z</time>
      </trkpt>
      <trkpt lat="50.70543" lon="2.6947">
        <ele>17.363487243652</ele>
        <time>2018-02-27T12:51:22Z</time>
      </trkpt>
      <trkpt lat="50.70491" lon="2.69523">
        <ele>17.115411758423</ele>
        <time>2018-02-27T12:51:31Z</time>
      </trkpt>
      <trkpt lat="50.70458" lon="2.69554">
        <ele>17.256195068359</ele>
        <time>2018-02-27T12:51:49Z</time>
      </trkpt>
      <trkpt lat="50.70434" lon="2.69572">
        <ele>17.899801254272</ele>
        <time>2018-02-27T12:51:54Z</time>
      </trkpt>
      <trkpt lat="50.70418" lon="2.69586">
        <ele>17.090152740479</ele>
        <time>2018-02-27T12:51:57Z</time>
      </trkpt>
      <trkpt lat="50.70422" lon="2.69598">
        <ele>16.903299331665</ele>
        <time>2018-02-27T12:52:00Z</time>
      </trkpt>
      <trkpt lat="50.70445" lon="2.69642">
        <ele>16.912401199341</ele>
        <time>2018-02-27T12:52:04Z</time>
      </trkpt>
      <trkpt lat="50.7048" lon="2.69693">
        <ele>16.895839691162</ele>
        <time>2018-02-27T12:52:08Z</time>
      </trkpt>
      <trkpt lat="50.70499" lon="2.69727">
        <ele>16.928726196289</ele>
        <time>2018-02-27T12:52:15Z</time>
      </trkpt>
      <trkpt lat="50.70533" lon="2.69797">
        <ele>16.937520980835</ele>
        <time>2018-02-27T12:52:24Z</time>
      </trkpt>
      <trkpt lat="50.70574" lon="2.69885">
        <ele>17.416065216064</ele>
        <time>2018-02-27T12:52:31Z</time>
      </trkpt>
      <trkpt lat="50.70607" lon="2.69956">
        <ele>17.247922897339</ele>
        <time>2018-02-27T12:52:31Z</time>
      </trkpt>
      <trkpt lat="50.70612" lon="2.69973">
        <ele>17.209674835205</ele>
        <time>2018-02-27T12:52:31Z</time>
      </trkpt>
      <trkpt lat="50.70616" lon="2.70005">
        <ele>16.928020477295</ele>
        <time>2018-02-27T12:52:37Z</time>
      </trkpt>
      <trkpt lat="50.70625" lon="2.7006">
        <ele>16.796855926514</ele>
        <time>2018-02-27T12:52:48Z</time>
      </trkpt>
      <trkpt lat="50.70637" lon="2.70114">
        <ele>17.058343887329</ele>
        <time>2018-02-27T12:52:57Z</time>
      </trkpt>
      <trkpt lat="50.70649" lon="2.70166">
        <ele>17.201597213745</ele>
        <time>2018-02-27T12:52:58Z</time>
      </trkpt>
      <trkpt lat="50.70666" lon="2.70231">
        <ele>16.793441772461</ele>
        <time>2018-02-27T12:53:22Z</time>
      </trkpt>
      <trkpt lat="50.70681" lon="2.70275">
        <ele>16.774765014648</ele>
        <time>2018-02-27T12:53:35Z</time>
      </trkpt>
      <trkpt lat="50.70693" lon="2.70309">
        <ele>16.886896133423</ele>
        <time>2018-02-27T12:53:39Z</time>
      </trkpt>
      <trkpt lat="50.70694" lon="2.70312">
        <ele>16.894323348999</ele>
        <time>2018-02-27T12:53:46Z</time>
      </trkpt>
      <trkpt lat="50.70689" lon="2.70327">
        <ele>16.614255905151</ele>
        <time>2018-02-27T12:53:58Z</time>
      </trkpt>
      <trkpt lat="50.70659" lon="2.70378">
        <ele>16.198909759521</ele>
        <time>2018-02-27T12:54:09Z</time>
      </trkpt>
      <trkpt lat="50.70596" lon="2.70473">
        <ele>16.915517807007</ele>
        <time>2018-02-27T12:54:15Z</time>
      </trkpt>
      <trkpt lat="50.70542" lon="2.70552">
        <ele>17.194536209106</ele>
        <time>2018-02-27T12:54:15Z</time>
      </trkpt>
      <trkpt lat="50.70533" lon="2.70569">
        <ele>17.075532913208</ele>
        <time>2018-02-27T12:54:21Z</time>
      </trkpt>
      <trkpt lat="50.70528" lon="2.70584">
        <ele>16.953079223633</ele>
        <time>2018-02-27T12:54:26Z</time>
      </trkpt>
      <trkpt lat="50.70526" lon="2.70604">
        <ele>17.293092727661</ele>
        <time>2018-02-27T12:54:32Z</time>
      </trkpt>
      <trkpt lat="50.70532" lon="2.70698">
        <ele>17.606536865234</ele>
        <time>2018-02-27T12:54:44Z</time>
      </trkpt>
      <trkpt lat="50.70535" lon="2.70723">
        <ele>17.405944824219</ele>
        <time>2018-02-27T12:54:48Z</time>
      </trkpt>
      <trkpt lat="50.70535" lon="2.70723">
        <ele>17.405944824219</ele>
        <time>2018-02-27T12:54:50Z</time>
      </trkpt>
      <trkpt lat="50.70545" lon="2.70788">
        <ele>17.526031494141</ele>
        <time>2018-02-27T12:55:16Z</time>
      </trkpt>
      <trkpt lat="50.7055" lon="2.70822">
        <ele>16.911693572998</ele>
        <time>2018-02-27T12:56:03Z</time>
      </trkpt>
      <trkpt lat="50.70554" lon="2.70821">
        <ele>16.870433807373</ele>
        <time>2018-02-27T12:56:13Z</time>
      </trkpt>
      <trkpt lat="50.70584" lon="2.70818">
        <ele>17.74827003479</ele>
        <time>2018-02-27T12:56:21Z</time>
      </trkpt>
      <trkpt lat="50.70614" lon="2.70816">
        <ele>19.672159194946</ele>
        <time>2018-02-27T12:56:24Z</time>
      </trkpt>
      <trkpt lat="50.70645" lon="2.70817">
        <ele>21.417375564575</ele>
        <time>2018-02-27T12:56:26Z</time>
      </trkpt>
      <trkpt lat="50.70677" lon="2.7082">
        <ele>23.750665664673</ele>
        <time>2018-02-27T12:56:28Z</time>
      </trkpt>
      <trkpt lat="50.70714" lon="2.70827">
        <ele>22.757883071899</ele>
        <time>2018-02-27T12:56:31Z</time>
      </trkpt>
      <trkpt lat="50.70756" lon="2.70839">
        <ele>20.353975296021</ele>
        <time>2018-02-27T12:56:31Z</time>
      </trkpt>
      <trkpt lat="50.70864" lon="2.7088">
        <ele>20.578470230103</ele>
        <time>2018-02-27T12:56:32Z</time>
      </trkpt>
      <trkpt lat="50.70964" lon="2.7092">
        <ele>24.411024093628</ele>
        <time>2018-02-27T12:56:32Z</time>
      </trkpt>
      <trkpt lat="50.71002" lon="2.70934">
        <ele>21.179124832153</ele>
        <time>2018-02-27T12:56:33Z</time>
      </trkpt>
      <trkpt lat="50.71029" lon="2.70942">
        <ele>18.99129486084</ele>
        <time>2018-02-27T12:56:34Z</time>
      </trkpt>
      <trkpt lat="50.71057" lon="2.70947">
        <ele>18.177173614502</ele>
        <time>2018-02-27T12:56:36Z</time>
      </trkpt>
      <trkpt lat="50.71067" lon="2.70948">
        <ele>18.155235290527</ele>
        <time>2018-02-27T12:56:38Z</time>
      </trkpt>
      <trkpt lat="50.71069" lon="2.70952">
        <ele>18.277490615845</ele>
        <time>2018-02-27T12:56:40Z</time>
      </trkpt>
      <trkpt lat="50.71071" lon="2.7096">
        <ele>18.513620376587</ele>
        <time>2018-02-27T12:56:42Z</time>
      </trkpt>
      <trkpt lat="50.71071" lon="2.70971">
        <ele>18.667320251465</ele>
        <time>2018-02-27T12:56:44Z</time>
      </trkpt>
      <trkpt lat="50.71063" lon="2.70989">
        <ele>18.723962783813</ele>
        <time>2018-02-27T12:57:17Z</time>
      </trkpt>
      <trkpt lat="50.71052" lon="2.70994">
        <ele>18.3186378479</ele>
        <time>2018-02-27T12:58:19Z</time>
      </trkpt>
      <trkpt lat="50.71032" lon="2.7099">
        <ele>17.612266540527</ele>
        <time>2018-02-27T12:58:27Z</time>
      </trkpt>
      <trkpt lat="50.71011" lon="2.70985">
        <ele>17.914886474609</ele>
        <time>2018-02-27T12:58:57Z</time>
      </trkpt>
      <trkpt lat="50.71001" lon="2.70988">
        <ele>17.969095230103</ele>
        <time>2018-02-27T12:59:34Z</time>
      </trkpt>
      <trkpt lat="50.70991" lon="2.71001">
        <ele>17.871353149414</ele>
        <time>2018-02-27T12:59:52Z</time>
      </trkpt>
      <trkpt lat="50.70987" lon="2.71016">
        <ele>17.824882507324</ele>
        <time>2018-02-27T13:00:23Z</time>
      </trkpt>
      <trkpt lat="50.70989" lon="2.71061">
        <ele>17.49635887146</ele>
        <time>2018-02-27T13:00:47Z</time>
      </trkpt>
      <trkpt lat="50.71001" lon="2.71183">
        <ele>17.378582000732</ele>
        <time>2018-02-27T13:00:53Z</time>
      </trkpt>
      <trkpt lat="50.71011" lon="2.71284">
        <ele>17.367702484131</ele>
        <time>2018-02-27T13:00:55Z</time>
      </trkpt>
      <trkpt lat="50.71018" lon="2.71416">
        <ele>16.987854003906</ele>
        <time>2018-02-27T13:01:02Z</time>
      </trkpt>
      <trkpt lat="50.71026" lon="2.71548">
        <ele>16.811252593994</ele>
        <time>2018-02-27T13:01:05Z</time>
      </trkpt>
      <trkpt lat="50.71031" lon="2.7158">
        <ele>16.947797775269</ele>
        <time>2018-02-27T13:01:23Z</time>
      </trkpt>
      <trkpt lat="50.71037" lon="2.71611">
        <ele>17.01544380188</ele>
        <time>2018-02-27T13:01:36Z</time>
      </trkpt>
      <trkpt lat="50.71046" lon="2.71654">
        <ele>17.048763275146</ele>
        <time>2018-02-27T13:01:41Z</time>
      </trkpt>
      <trkpt lat="50.71063" lon="2.71772">
        <ele>16.051403045654</ele>
        <time>2018-02-27T13:02:32Z</time>
      </trkpt>
      <trkpt lat="50.71087" lon="2.71951">
        <ele>16.397382736206</ele>
        <time>2018-02-27T13:02:34Z</time>
      </trkpt>
      <trkpt lat="50.71093" lon="2.71975">
        <ele>16.457572937012</ele>
        <time>2018-02-27T13:02:34Z</time>
      </trkpt>
      <trkpt lat="50.71101" lon="2.71984">
        <ele>17.18478012085</ele>
        <time>2018-02-27T13:02:40Z</time>
      </trkpt>
      <trkpt lat="50.71115" lon="2.71988">
        <ele>17.645511627197</ele>
        <time>2018-02-27T13:02:42Z</time>
      </trkpt>
      <trkpt lat="50.71138" lon="2.71985">
        <ele>17.454336166382</ele>
        <time>2018-02-27T13:02:44Z</time>
      </trkpt>
      <trkpt lat="50.71146" lon="2.71989">
        <ele>17.046304702759</ele>
        <time>2018-02-27T13:02:51Z</time>
      </trkpt>
      <trkpt lat="50.71157" lon="2.72009">
        <ele>16.503326416016</ele>
        <time>2018-02-27T13:03:00Z</time>
      </trkpt>
      <trkpt lat="50.71184" lon="2.72162">
        <ele>16.917552947998</ele>
        <time>2018-02-27T13:03:22Z</time>
      </trkpt>
      <trkpt lat="50.71184" lon="2.72162">
        <ele>16.917552947998</ele>
        <time>2018-02-27T13:03:48Z</time>
      </trkpt>
      <trkpt lat="50.71206" lon="2.72292">
        <ele>17.176191329956</ele>
        <time>2018-02-27T13:04:15Z</time>
      </trkpt>
      <trkpt lat="50.71213" lon="2.72323">
        <ele>17.06713104248</ele>
        <time>2018-02-27T13:04:18Z</time>
      </trkpt>
      <trkpt lat="50.71231" lon="2.72385">
        <ele>17.221374511719</ele>
        <time>2018-02-27T13:04:20Z</time>
      </trkpt>
      <trkpt lat="50.71263" lon="2.7248">
        <ele>17.742139816284</ele>
        <time>2018-02-27T13:04:23Z</time>
      </trkpt>
      <trkpt lat="50.71238" lon="2.72499">
        <ele>18.363538742065</ele>
        <time>2018-02-27T13:04:29Z</time>
      </trkpt>
      <trkpt lat="50.71214" lon="2.72524">
        <ele>18.429946899414</ele>
        <time>2018-02-27T13:04:35Z</time>
      </trkpt>
      <trkpt lat="50.71094" lon="2.72672">
        <ele>17.436967849731</ele>
        <time>2018-02-27T13:04:41Z</time>
      </trkpt>
      <trkpt lat="50.71037" lon="2.72737">
        <ele>17.356887817383</ele>
        <time>2018-02-27T13:04:48Z</time>
      </trkpt>
      <trkpt lat="50.70605" lon="2.73572">
        <ele>16.7</ele>
        <time>2018-02-27T11:39:56Z</time>
      </trkpt>
      <trkpt lat="50.70596" lon="2.73624">
        <ele>16.3</ele>
      </trkpt>
      <trkpt lat="50.70501" lon="2.73602">
        <ele>16.7</ele>
      </trkpt>
      <trkpt lat="50.70467" lon="2.73586">
        <ele>16.6</ele>
      </trkpt>
      <trkpt lat="50.70358" lon="2.73654">
        <ele>16.2</ele>
      </trkpt>
      <trkpt lat="50.7032" lon="2.73538">
        <ele>16.5</ele>
      </trkpt>
      <trkpt lat="50.70141" lon="2.73289">
        <ele>16.1</ele>
      </trkpt>
      <trkpt lat="50.69924" lon="2.72603">
        <ele>16</ele>
      </trkpt>
      <trkpt lat="50.69859" lon="2.72309">
        <ele>16.2</ele>
      </trkpt>
      <trkpt lat="50.69759" lon="2.72264">
        <ele>16.6</ele>
      </trkpt>
      <trkpt lat="50.69636" lon="2.71958">
        <ele>16.4</ele>
      </trkpt>
      <trkpt lat="50.69362" lon="2.71988">
        <ele>16.2</ele>
      </trkpt>
      <trkpt lat="50.69024" lon="2.72158">
        <ele>16</ele>
      </trkpt>
      <trkpt lat="50.69059" lon="2.71845">
        <ele>16.6</ele>
      </trkpt>
      <trkpt lat="50.69062" lon="2.71733">
        <ele>17.7</ele>
      </trkpt>
      <trkpt lat="50.69078" lon="2.71295">
        <ele>17.4</ele>
      </trkpt>
      <trkpt lat="50.69123" lon="2.70149">
        <ele>16.4</ele>
      </trkpt>
      <trkpt lat="50.69135" lon="2.69808">
        <ele>16.8</ele>
      </trkpt>
      <trkpt lat="50.69206" lon="2.69256">
        <ele>16</ele>
      </trkpt>
      <trkpt lat="50.69244" lon="2.68843">
        <ele>16.8</ele>
      </trkpt>
      <trkpt lat="50.69341" lon="2.68459">
        <ele>16.2</ele>
      </trkpt>
      <trkpt lat="50.69602" lon="2.68457">
        <ele>17.8</ele>
      </trkpt>
      <trkpt lat="50.6958" lon="2.68287">
        <ele>17.1</ele>
      </trkpt>
      <trkpt lat="50.69611" lon="2.68157">
        <ele>16.1</ele>
      </trkpt>
      <trkpt lat="50.69757" lon="2.67943">
        <ele>16.8</ele>
      </trkpt>
      <trkpt lat="50.69889" lon="2.67699">
        <ele>18.1</ele>
      </trkpt>
      <trkpt lat="50.69938" lon="2.67042">
        <ele>17.6</ele>
      </trkpt>
      <trkpt lat="50.69575" lon="2.66907">
        <ele>16.9</ele>
      </trkpt>
      <trkpt lat="50.69359" lon="2.66581">
        <ele>16.9</ele>
      </trkpt>
      <trkpt lat="50.69236" lon="2.66414">
        <ele>16.2</ele>
      </trkpt>
      <trkpt lat="50.69152" lon="2.66379">
        <ele>17</ele>
      </trkpt>
      <trkpt lat="50.68706" lon="2.64957">
        <ele>16.5</ele>
      </trkpt>
      <trkpt lat="50.6875" lon="2.64887">
        <ele>16.7</ele>
      </trkpt>
      <trkpt lat="50.68407" lon="2.63998">
        <ele>17.6</ele>
      </trkpt>
      <trkpt lat="50.68259" lon="2.63334">
        <ele>17.6</ele>
      </trkpt>
      <trkpt lat="50.68243" lon="2.63165">
        <ele>16.1</ele>
      </trkpt>
      <trkpt lat="50.68127" lon="2.6297">
        <ele>15.5</ele>
      </trkpt>
      <trkpt lat="50.68102" lon="2.62619">
        <ele>15.9</ele>
      </trkpt>
      <trkpt lat="50.68168" lon="2.62449">
        <ele>15.7</ele>
      </trkpt>
      <trkpt lat="50.68102" lon="2.61838">
        <ele>19.5</ele>
      </trkpt>
      <trkpt lat="50.67781" lon="2.61968">
        <ele>15.8</ele>
      </trkpt>
      <trkpt lat="50.674" lon="2.61952">
        <ele>16.4</ele>
      </trkpt>
      <trkpt lat="50.6725" lon="2.61412">
        <ele>16</ele>
      </trkpt>
      <trkpt lat="50.67233" lon="2.61234">
        <ele>16</ele>
      </trkpt>
      <trkpt lat="50.67223" lon="2.61144">
        <ele>16</ele>
      </trkpt>
      <trkpt lat="50.67203" lon="2.61039">
        <ele>16</ele>
      </trkpt>
      <trkpt lat="50.67192" lon="2.6089">
        <ele>17.2</ele>
      </trkpt>
      <trkpt lat="50.67171" lon="2.60789">
        <ele>16.8</ele>
      </trkpt>
      <trkpt lat="50.67127" lon="2.60621">
        <ele>15.5</ele>
      </trkpt>
      <trkpt lat="50.67006" lon="2.60318">
        <ele>15.9</ele>
      </trkpt>
      <trkpt lat="50.66906" lon="2.59914">
        <ele>16</ele>
      </trkpt>
      <trkpt lat="50.66734" lon="2.5998">
        <ele>15.8</ele>
      </trkpt>
      <trkpt lat="50.6654" lon="2.60145">
        <ele>15.8</ele>
      </trkpt>
      <trkpt lat="50.66469" lon="2.60145">
        <ele>15.5</ele>
      </trkpt>
      <trkpt lat="50.66426" lon="2.59674">
        <ele>16.9</ele>
      </trkpt>
      <trkpt lat="50.66436" lon="2.59562">
        <ele>21.9</ele>
      </trkpt>
      <trkpt lat="50.67246" lon="2.58299">
        <ele>21</ele>
      </trkpt>
      <trkpt lat="50.67122" lon="2.57955">
        <ele>16.5</ele>
      </trkpt>
      <trkpt lat="50.67103" lon="2.57866">
        <ele>16.6</ele>
      </trkpt>
      <trkpt lat="50.67222" lon="2.57634">
        <ele>17.4</ele>
      </trkpt>
      <trkpt lat="50.67028" lon="2.56573">
        <ele>20.7</ele>
      </trkpt>
      <trkpt lat="50.66673" lon="2.56222">
        <ele>18.5</ele>
      </trkpt>
      <trkpt lat="50.66625" lon="2.56005">
        <ele>22.3</ele>
      </trkpt>
      <trkpt lat="50.66606" lon="2.55527">
        <ele>16.9</ele>
      </trkpt>
      <trkpt lat="50.66601" lon="2.55123">
        <ele>17.8</ele>
      </trkpt>
      <trkpt lat="50.67028" lon="2.54384">
        <ele>17</ele>
      </trkpt>
      <trkpt lat="50.67435" lon="2.53651">
        <ele>17</ele>
      </trkpt>
      <trkpt lat="50.67563" lon="2.53719">
        <ele>16.4</ele>
      </trkpt>
      <trkpt lat="50.67951" lon="2.54257">
        <ele>17.4</ele>
      </trkpt>
      <trkpt lat="50.68356" lon="2.53316">
        <ele>16.2</ele>
      </trkpt>
      <trkpt lat="50.68371" lon="2.5327">
        <ele>16.2</ele>
      </trkpt>
      <trkpt lat="50.68859" lon="2.53429">
        <ele>16.7</ele>
      </trkpt>
      <trkpt lat="50.69031" lon="2.53735">
        <ele>18</ele>
      </trkpt>
      <trkpt lat="50.69318" lon="2.52976">
        <ele>18.6</ele>
      </trkpt>
      <trkpt lat="50.69282" lon="2.52931">
        <ele>18.6</ele>
      </trkpt>
      <trkpt lat="50.6954" lon="2.51889">
        <ele>28</ele>
      </trkpt>
      <trkpt lat="50.69603" lon="2.51593">
        <ele>32.8</ele>
      </trkpt>
      <trkpt lat="50.69863" lon="2.51003">
        <ele>50.5</ele>
      </trkpt>
      <trkpt lat="50.69982" lon="2.50697">
        <ele>59.6</ele>
      </trkpt>
      <trkpt lat="50.70053" lon="2.505">
        <ele>62.1</ele>
      </trkpt>
      <trkpt lat="50.70179" lon="2.50312">
        <ele>53.3</ele>
      </trkpt>
      <trkpt lat="50.70435" lon="2.49635">
        <ele>54.5</ele>
      </trkpt>
      <trkpt lat="50.70537" lon="2.4972">
        <ele>50</ele>
      </trkpt>
      <trkpt lat="50.70611" lon="2.49737">
        <ele>46.7</ele>
      </trkpt>
      <trkpt lat="50.70733" lon="2.49922">
        <ele>40.6</ele>
      </trkpt>
      <trkpt lat="50.70793" lon="2.50188">
        <ele>37.3</ele>
      </trkpt>
      <trkpt lat="50.7085" lon="2.50261">
        <ele>35.2</ele>
      </trkpt>
      <trkpt lat="50.7088" lon="2.50261">
        <ele>34.4</ele>
      </trkpt>
      <trkpt lat="50.70953" lon="2.50381">
        <ele>33.5</ele>
      </trkpt>
      <trkpt lat="50.70983" lon="2.50374">
        <ele>33.6</ele>
      </trkpt>
      <trkpt lat="50.71073" lon="2.50286">
        <ele>35.2</ele>
      </trkpt>
      <trkpt lat="50.71087" lon="2.50211">
        <ele>36.3</ele>
      </trkpt>
      <trkpt lat="50.71169" lon="2.50152">
        <ele>37.7</ele>
      </trkpt>
      <trkpt lat="50.71178" lon="2.50108">
        <ele>38.4</ele>
      </trkpt>
      <trkpt lat="50.71172" lon="2.50047">
        <ele>39.4</ele>
      </trkpt>
      <trkpt lat="50.71173" lon="2.50011">
        <ele>39.4</ele>
      </trkpt>
      <trkpt lat="50.71198" lon="2.4996">
        <ele>41.8</ele>
      </trkpt>
      <trkpt lat="50.7123" lon="2.49855">
        <ele>45.5</ele>
      </trkpt>
      <trkpt lat="50.71303" lon="2.49907">
        <ele>46.2</ele>
      </trkpt>
      <trkpt lat="50.7135" lon="2.49921">
        <ele>46</ele>
      </trkpt>
      <trkpt lat="50.71381" lon="2.49908">
        <ele>47.8</ele>
      </trkpt>
      <trkpt lat="50.71393" lon="2.49855">
        <ele>48.5</ele>
      </trkpt>
      <trkpt lat="50.71401" lon="2.49842">
        <ele>49</ele>
      </trkpt>
      <trkpt lat="50.71415" lon="2.49844">
        <ele>49.3</ele>
      </trkpt>
      <trkpt lat="50.71522" lon="2.4985">
        <ele>52.4</ele>
      </trkpt>
      <trkpt lat="50.71632" lon="2.49833">
        <ele>54.9</ele>
      </trkpt>
      <trkpt lat="50.71828" lon="2.49733">
        <ele>55.2</ele>
      </trkpt>
      <trkpt lat="50.71924" lon="2.49631">
        <ele>57.3</ele>
      </trkpt>
      <trkpt lat="50.71962" lon="2.49737">
        <ele>55</ele>
      </trkpt>
      <trkpt lat="50.72026" lon="2.5006">
        <ele>46.9</ele>
      </trkpt>
      <trkpt lat="50.72234" lon="2.50468">
        <ele>40.5</ele>
      </trkpt>
      <trkpt lat="50.7228" lon="2.50637">
        <ele>39.4</ele>
      </trkpt>
      <trkpt lat="50.72396" lon="2.50572">
        <ele>40.1</ele>
      </trkpt>
      <trkpt lat="50.72442" lon="2.50596">
        <ele>38.1</ele>
      </trkpt>
      <trkpt lat="50.72619" lon="2.50492">
        <ele>41.1</ele>
      </trkpt>
      <trkpt lat="50.72774" lon="2.50398">
        <ele>42.5</ele>
      </trkpt>
      <trkpt lat="50.72897" lon="2.50398">
        <ele>43.1</ele>
      </trkpt>
      <trkpt lat="50.73008" lon="2.50451">
        <ele>41.1</ele>
      </trkpt>
      <trkpt lat="50.73172" lon="2.50493">
        <ele>39.1</ele>
      </trkpt>
      <trkpt lat="50.73285" lon="2.50779">
        <ele>35.8</ele>
      </trkpt>
      <trkpt lat="50.73523" lon="2.50557">
        <ele>36.4</ele>
      </trkpt>
      <trkpt lat="50.7366" lon="2.50536">
        <ele>33.8</ele>
      </trkpt>
      <trkpt lat="50.73757" lon="2.50462">
        <ele>35.4</ele>
      </trkpt>
      <trkpt lat="50.7389" lon="2.50441">
        <ele>36.4</ele>
      </trkpt>
      <trkpt lat="50.74014" lon="2.50367">
        <ele>35.3</ele>
      </trkpt>
      <trkpt lat="50.74093" lon="2.50595">
        <ele>32.8</ele>
      </trkpt>
      <trkpt lat="50.7432" lon="2.50745">
        <ele>28.5</ele>
      </trkpt>
      <trkpt lat="50.74409" lon="2.50999">
        <ele>28</ele>
      </trkpt>
      <trkpt lat="50.7466" lon="2.50842">
        <ele>29</ele>
      </trkpt>
      <trkpt lat="50.7474" lon="2.5126">
        <ele>30.6</ele>
      </trkpt>
      <trkpt lat="50.74906" lon="2.5132">
        <ele>33.5</ele>
      </trkpt>
      <trkpt lat="50.75048" lon="2.5129">
        <ele>33.8</ele>
      </trkpt>
      <trkpt lat="50.75133" lon="2.5138">
        <ele>35.6</ele>
      </trkpt>
      <trkpt lat="50.75138" lon="2.51604">
        <ele>35.8</ele>
      </trkpt>
      <trkpt lat="50.7526" lon="2.51656">
        <ele>38.6</ele>
      </trkpt>
      <trkpt lat="50.75242" lon="2.51769">
        <ele>37.5</ele>
      </trkpt>
      <trkpt lat="50.75383" lon="2.51761">
        <ele>42.3</ele>
      </trkpt>
      <trkpt lat="50.75398" lon="2.51858">
        <ele>42.1</ele>
      </trkpt>
      <trkpt lat="50.75541" lon="2.51879">
        <ele>44.7</ele>
      </trkpt>
    </trkseg>
  </trk>
</gpx>